createdAt,value
2023-11-29T00:01:22.284Z,10.50
2023-11-29T00:04:24.800Z,11.52
2023-11-29T00:07:27.150Z,10.48
2023-11-29T00:10:29.604Z,9.23
2023-11-29T00:13:32.194Z,8.90
2023-11-29T00:16:34.759Z,10.98
2023-11-29T00:19:37.098Z,8.98
2023-11-29T00:22:42.136Z,12.13
2023-11-29T00:25:52.055Z,9.55
2023-11-29T00:28:54.465Z,10.25
2023-11-29T00:31:58.963Z,10.05
2023-11-29T00:35:01.695Z,10.88
2023-11-29T00:38:11.125Z,10.10
2023-11-29T00:41:13.631Z,10.32
2023-11-29T00:44:16.544Z,9.05
2023-11-29T00:47:20.062Z,9.77
2023-11-29T00:50:25.655Z,9.40
2023-11-29T00:53:33.463Z,8.48
2023-11-29T00:56:40.360Z,8.18
2023-11-29T00:59:48.784Z,8.55
2023-11-29T01:02:51.312Z,9.05
2023-11-29T01:05:53.815Z,10.52
2023-11-29T01:08:58.408Z,9.77
2023-11-29T01:12:01.253Z,11.55
2023-11-29T01:15:04.041Z,7.53
2023-11-29T01:18:09.792Z,8.52
2023-11-29T01:21:15.100Z,7.05
2023-11-29T01:24:19.568Z,7.55
2023-11-29T01:27:26.843Z,10.48
2023-11-29T01:30:34.045Z,9.15
2023-11-29T01:33:36.596Z,7.95
2023-11-29T01:36:45.917Z,8.80
2023-11-29T01:39:50.080Z,8.48
2023-11-29T01:42:55.982Z,10.20
2023-11-29T01:45:58.439Z,7.68
2023-11-29T01:49:03.954Z,8.75
2023-11-29T01:52:07.046Z,9.05
2023-11-29T01:55:11.207Z,8.43
2023-11-29T01:58:13.650Z,8.82
2023-11-29T02:01:16.378Z,8.40
2023-11-29T02:04:18.820Z,8.65
2023-11-29T02:07:21.302Z,6.72
2023-11-29T02:10:26.781Z,7.55
2023-11-29T02:13:31.450Z,8.27
2023-11-29T02:16:35.473Z,10.02
2023-11-29T02:19:40.384Z,9.23
2023-11-29T02:22:49.550Z,9.20
2023-11-29T02:25:55.865Z,8.05
2023-11-29T02:28:59.298Z,7.00
2023-11-29T02:32:03.319Z,8.25
2023-11-29T02:35:06.780Z,9.75
2023-11-29T02:38:10.948Z,8.65
2023-11-29T02:41:15.694Z,8.65
2023-11-29T02:44:20.876Z,10.10
2023-11-29T02:47:23.344Z,8.38
2023-11-29T02:50:28.395Z,8.43
2023-11-29T02:53:30.891Z,9.90
2023-11-29T02:56:33.349Z,8.93
2023-11-29T02:59:38.063Z,9.57
2023-11-29T03:02:40.654Z,10.30
2023-11-29T03:05:43.210Z,9.70
2023-11-29T03:08:45.716Z,9.85
2023-11-29T03:11:48.146Z,9.77
2023-11-29T03:14:50.651Z,9.68
2023-11-29T03:17:55.401Z,8.65
2023-11-29T03:20:57.801Z,10.77
2023-11-29T03:24:01.647Z,10.20
2023-11-29T03:27:06.584Z,10.07
2023-11-29T03:30:16.186Z,10.55
2023-11-29T03:33:20.961Z,10.57
2023-11-29T03:36:23.365Z,9.73
2023-11-29T03:39:27.157Z,12.73
2023-11-29T03:42:31.864Z,8.93
2023-11-29T03:45:37.027Z,7.97
2023-11-29T03:48:40.765Z,10.32
2023-11-29T03:51:47.110Z,10.88
2023-11-29T03:54:52.448Z,9.15
2023-11-29T03:57:55.309Z,9.80
2023-11-29T04:00:57.705Z,10.80
2023-11-29T04:04:00.368Z,10.13
2023-11-29T04:07:06.005Z,11.55
2023-11-29T04:10:10.352Z,12.00
2023-11-29T04:13:16.566Z,10.63
2023-11-29T04:16:23.126Z,11.73
2023-11-29T04:19:25.651Z,9.75
2023-11-29T04:22:28.169Z,10.52
2023-11-29T04:25:32.922Z,10.20
2023-11-29T04:28:35.279Z,8.73
2023-11-29T04:31:38.208Z,10.18
2023-11-29T04:34:47.509Z,7.90
2023-11-29T04:37:51.455Z,10.75
2023-11-29T04:40:56.614Z,9.68
2023-11-29T04:44:00.003Z,9.63
2023-11-29T04:47:02.937Z,8.38
2023-11-29T04:50:11.003Z,10.02
2023-11-29T04:53:14.192Z,9.50
2023-11-29T04:56:16.686Z,10.93
2023-11-29T04:59:20.609Z,8.30
2023-11-29T05:02:24.532Z,8.93
2023-11-29T05:05:29.114Z,9.85
2023-11-29T05:08:33.381Z,9.88
2023-11-29T05:11:35.815Z,8.35
2023-11-29T05:14:38.280Z,9.02
2023-11-29T05:17:43.456Z,9.63
2023-11-29T05:20:46.093Z,9.65
2023-11-29T05:23:50.090Z,8.82
2023-11-29T05:26:55.713Z,8.50
2023-11-29T05:30:00.332Z,8.82
2023-11-29T05:33:09.535Z,8.75
2023-11-29T05:36:12.439Z,9.27
2023-11-29T05:39:15.071Z,7.55
2023-11-29T05:42:21.994Z,9.57
2023-11-29T05:45:24.529Z,8.02
2023-11-29T05:51:33.339Z,7.97
2023-11-29T05:54:38.925Z,8.05
2023-11-29T05:57:46.010Z,7.35
2023-11-29T06:00:49.102Z,8.07
2023-11-29T06:03:51.588Z,8.63
2023-11-29T06:06:54.073Z,8.38
2023-11-29T06:10:00.307Z,7.60
2023-11-29T06:13:05.025Z,8.10
2023-11-29T06:16:07.921Z,7.93
2023-11-29T06:19:12.923Z,5.28
2023-11-29T06:22:16.962Z,6.38
2023-11-29T06:25:20.628Z,6.65
2023-11-29T06:31:28.956Z,7.97
2023-11-29T06:34:32.667Z,7.53
2023-11-29T06:37:35.605Z,6.93
2023-11-29T06:40:44.325Z,9.52
2023-11-29T06:43:55.073Z,6.63
2023-11-29T06:47:00.255Z,8.95
2023-11-29T06:50:05.313Z,7.80
2023-11-29T06:53:08.409Z,7.25
2023-11-29T06:56:13.315Z,7.05
2023-11-29T06:59:18.099Z,7.05
2023-11-29T07:02:23.786Z,6.15
2023-11-29T07:05:26.228Z,6.70
2023-11-29T07:08:28.787Z,6.63
2023-11-29T07:11:33.480Z,6.60
2023-11-29T07:14:36.640Z,7.43
2023-11-29T07:17:39.727Z,7.07
2023-11-29T07:20:46.226Z,7.28
2023-11-29T07:23:51.694Z,5.90
2023-11-29T07:26:56.544Z,7.07
2023-11-29T07:30:01.935Z,6.55
2023-11-29T07:33:07.302Z,6.25
2023-11-29T07:36:14.515Z,6.32
2023-11-29T07:39:17.313Z,6.40
2023-11-29T07:42:19.762Z,6.38
2023-11-29T07:45:25.819Z,6.03
2023-11-29T07:48:28.539Z,5.65
2023-11-29T07:51:33.744Z,8.30
2023-11-29T07:57:38.870Z,5.80
2023-11-29T08:00:41.386Z,6.35
2023-11-29T08:03:43.979Z,6.72
2023-11-29T08:06:47.790Z,8.30
2023-11-29T08:12:59.919Z,6.13
2023-11-29T08:16:03.685Z,6.78
2023-11-29T08:19:07.291Z,6.38
2023-11-29T08:22:09.756Z,7.20
2023-11-29T08:25:14.868Z,7.65
2023-11-29T08:28:19.564Z,6.65
2023-11-29T08:31:25.295Z,6.35
2023-11-29T08:34:33.022Z,6.45
2023-11-29T08:37:37.219Z,6.85
2023-11-29T08:40:42.477Z,7.15
2023-11-29T08:43:44.918Z,6.50
2023-11-29T08:46:49.922Z,5.43
2023-11-29T08:49:52.346Z,7.43
2023-11-29T08:52:57.364Z,6.95
2023-11-29T08:55:59.783Z,8.15
2023-11-29T08:59:02.556Z,7.70
2023-11-29T09:02:07.226Z,6.05
2023-11-29T09:05:09.693Z,7.00
2023-11-29T09:08:15.528Z,6.20
2023-11-29T09:11:20.309Z,6.75
2023-11-29T09:14:23.339Z,7.03
2023-11-29T09:17:26.473Z,8.18
2023-11-29T09:20:29.683Z,6.15
2023-11-29T09:23:35.179Z,9.15
2023-11-29T09:26:43.291Z,5.97
2023-11-29T09:29:45.883Z,5.35
2023-11-29T09:32:48.617Z,6.70
2023-11-29T09:35:51.126Z,6.82
2023-11-29T09:42:01.727Z,5.97
2023-11-29T09:45:09.181Z,6.80
2023-11-29T09:48:11.856Z,7.47
2023-11-29T09:51:18.665Z,7.05
2023-11-29T09:54:25.960Z,6.10
2023-11-29T10:00:37.815Z,6.95
2023-11-29T10:03:43.779Z,6.55
2023-11-29T10:06:48.795Z,7.10
2023-11-29T10:09:54.927Z,6.45
2023-11-29T10:13:00.601Z,6.32
2023-11-29T10:16:05.704Z,6.22
2023-11-29T10:19:11.109Z,6.93
2023-11-29T10:22:17.343Z,6.15
2023-11-29T10:25:26.054Z,6.25
2023-11-29T10:28:28.511Z,5.80
2023-11-29T10:31:30.969Z,13.50
2023-11-29T10:34:34.365Z,6.13
2023-11-29T10:37:43.819Z,6.38
2023-11-29T10:40:49.681Z,5.75
2023-11-29T10:43:52.388Z,6.45
2023-11-29T10:47:18.471Z,5.25
2023-11-29T10:50:22.959Z,6.60
2023-11-29T10:53:25.617Z,6.18
2023-11-29T10:56:33.512Z,6.45
2023-11-29T10:59:36.588Z,6.90
2023-11-29T11:02:39.259Z,6.45
2023-11-29T11:05:41.890Z,8.10
2023-11-29T11:08:45.575Z,10.00
2023-11-29T11:11:48.308Z,6.57
2023-11-29T11:14:54.897Z,9.55
2023-11-29T11:18:03.788Z,5.90
2023-11-29T11:21:09.978Z,8.18
2023-11-29T11:24:12.481Z,5.97
2023-11-29T11:27:18.268Z,7.18
2023-11-29T11:30:20.873Z,4.78
2023-11-29T11:33:23.628Z,4.35
2023-11-29T11:36:27.996Z,5.50
2023-11-29T11:39:32.967Z,4.35
2023-11-29T11:42:35.631Z,3.95
2023-11-29T11:45:38.444Z,5.30
2023-11-29T11:48:41.130Z,5.05
2023-11-29T11:51:44.321Z,4.13
2023-11-29T11:54:51.239Z,4.22
2023-11-29T11:57:53.898Z,3.97
2023-11-29T12:00:56.362Z,4.20
2023-11-29T12:04:01.620Z,3.42
2023-11-29T12:07:06.198Z,4.22
2023-11-29T12:10:15.179Z,4.22
2023-11-29T12:13:22.514Z,3.97
2023-11-29T12:16:27.814Z,4.13
2023-11-29T12:19:32.977Z,3.17
2023-11-29T12:22:35.481Z,3.67
2023-11-29T12:25:43.781Z,4.03
2023-11-29T12:28:49.434Z,4.90
2023-11-29T12:31:53.566Z,3.83
2023-11-29T12:35:02.121Z,4.88
2023-11-29T12:38:04.609Z,3.70
2023-11-29T12:41:11.434Z,4.20
2023-11-29T12:44:16.359Z,6.05
2023-11-29T12:47:23.280Z,5.60
2023-11-29T12:50:26.274Z,4.70
2023-11-29T12:53:29.179Z,5.68
2023-11-29T12:56:31.773Z,5.53
2023-11-29T12:59:36.482Z,5.35
2023-11-29T13:02:41.745Z,5.40
2023-11-29T13:05:44.328Z,4.93
2023-11-29T13:08:46.750Z,5.43
2023-11-29T13:11:51.707Z,5.80
2023-11-29T13:14:54.202Z,5.90
2023-11-29T13:17:58.058Z,5.13
2023-11-29T13:21:01.105Z,5.80
2023-11-29T13:24:08.094Z,6.40
2023-11-29T13:27:15.256Z,5.68
2023-11-29T13:30:18.659Z,6.30
2023-11-29T13:33:23.950Z,6.32
2023-11-29T13:36:28.692Z,5.70
2023-11-29T13:39:32.475Z,6.43
2023-11-29T13:42:35.052Z,6.05
2023-11-29T13:45:37.721Z,6.05
2023-11-29T13:48:45.811Z,6.15
2023-11-29T13:51:58.056Z,6.05
2023-11-29T13:55:13.549Z,6.40
2023-11-29T13:58:15.926Z,6.28
2023-11-29T14:01:18.400Z,5.88
2023-11-29T14:04:21.282Z,5.80
2023-11-29T14:07:23.905Z,5.40
2023-11-29T14:11:05.203Z,5.15
2023-11-29T14:14:10.669Z,5.53
2023-11-29T14:17:13.587Z,4.45
2023-11-29T14:20:17.521Z,4.82
2023-11-29T14:23:23.959Z,3.85
2023-11-29T14:26:28.926Z,3.25
2023-11-29T14:29:33.673Z,3.75
2023-11-29T14:32:36.355Z,3.80
2023-11-29T14:35:39.113Z,4.10
2023-11-29T14:38:41.975Z,3.75
2023-11-29T14:41:47.431Z,4.97
2023-11-29T14:44:51.283Z,6.47
2023-11-29T14:47:55.451Z,5.20
2023-11-29T14:51:04.039Z,5.70
2023-11-29T14:54:06.532Z,4.68
2023-11-29T14:57:11.270Z,5.55
2023-11-29T15:00:19.194Z,4.97
2023-11-29T15:03:25.252Z,5.47
2023-11-29T15:06:28.987Z,6.13
2023-11-29T15:09:34.149Z,5.80
2023-11-29T15:12:40.358Z,5.72
2023-11-29T15:15:48.321Z,7.05
2023-11-29T15:18:53.359Z,7.38
2023-11-29T15:21:58.597Z,8.15
2023-11-29T15:25:08.695Z,8.65
2023-11-29T15:28:17.435Z,9.00
2023-11-29T15:31:24.556Z,8.70
2023-11-29T15:34:32.440Z,9.45
2023-11-29T15:37:37.683Z,11.05
2023-11-29T15:40:46.461Z,8.55
2023-11-29T15:43:49.767Z,10.73
2023-11-29T15:46:52.332Z,9.05
2023-11-29T15:49:58.984Z,8.98
2023-11-29T15:53:01.797Z,9.50
2023-11-29T15:56:07.060Z,10.27
2023-11-29T15:59:11.987Z,9.95
2023-11-29T16:02:15.102Z,11.43
2023-11-29T16:05:18.133Z,9.75
2023-11-29T16:08:20.550Z,9.98
2023-11-29T16:11:25.935Z,13.52
2023-11-29T16:14:28.368Z,10.45
2023-11-29T16:17:30.731Z,10.52
2023-11-29T16:20:37.978Z,11.90
2023-11-29T16:23:40.739Z,10.05
2023-11-29T16:26:43.665Z,10.07
2023-11-29T16:29:48.442Z,12.68
2023-11-29T16:32:56.604Z,11.68
2023-11-29T16:36:02.804Z,13.32
2023-11-29T16:39:05.835Z,12.32
2023-11-29T16:42:11.267Z,15.65
2023-11-29T16:45:16.152Z,16.58
2023-11-29T16:48:18.973Z,15.32
2023-11-29T16:51:23.842Z,14.80
2023-11-29T16:54:28.909Z,13.15
2023-11-29T16:57:31.466Z,15.05
2023-11-29T17:00:34.112Z,13.95
2023-11-29T17:03:36.688Z,16.92
2023-11-29T17:06:42.596Z,16.58
2023-11-29T17:09:45.114Z,14.93
2023-11-29T17:12:47.487Z,13.45
2023-11-29T17:15:50.097Z,14.23
2023-11-29T17:18:52.656Z,15.32
2023-11-29T17:21:57.815Z,18.23
2023-11-29T17:25:00.918Z,16.92
2023-11-29T17:28:05.000Z,15.45
2023-11-29T17:31:14.438Z,16.23
2023-11-29T17:34:17.900Z,18.92
2023-11-29T17:37:21.303Z,19.10
2023-11-29T17:40:23.865Z,16.25
2023-11-29T17:43:26.954Z,16.92
2023-11-29T17:46:29.634Z,16.70
2023-11-29T17:49:32.795Z,15.68
2023-11-29T17:52:37.293Z,17.35
2023-11-29T17:55:40.459Z,21.63
2023-11-29T17:58:44.883Z,21.85
2023-11-29T18:01:47.807Z,24.70
2023-11-29T18:04:52.241Z,24.15
2023-11-29T18:07:55.508Z,19.15
2023-11-29T18:11:02.186Z,19.48
2023-11-29T18:14:04.756Z,18.65
2023-11-29T18:17:07.283Z,21.20
2023-11-29T18:20:10.157Z,22.88
2023-11-29T18:23:13.518Z,21.75
2023-11-29T18:26:18.540Z,20.88
2023-11-29T18:29:21.259Z,18.80
2023-11-29T18:32:24.282Z,17.60
2023-11-29T18:35:29.599Z,17.65
2023-11-29T18:38:32.371Z,17.88
2023-11-29T18:41:35.400Z,19.48
2023-11-29T18:44:38.863Z,20.30
2023-11-29T18:47:42.408Z,18.02
2023-11-29T18:50:45.210Z,20.38
2023-11-29T18:53:48.428Z,20.10
2023-11-29T18:56:51.151Z,20.88
2023-11-29T18:59:53.804Z,24.35
2023-11-29T19:02:59.351Z,21.10
2023-11-29T19:06:04.639Z,19.48
2023-11-29T19:09:07.190Z,19.83
2023-11-29T19:12:09.671Z,22.80
2023-11-29T19:15:12.145Z,24.25
2023-11-29T19:18:18.192Z,19.05
2023-11-29T19:21:25.480Z,25.10
2023-11-29T19:24:28.020Z,20.52
2023-11-29T19:27:36.002Z,19.33
2023-11-29T19:30:38.505Z,18.77
2023-11-29T19:33:41.115Z,20.30
2023-11-29T19:36:44.202Z,19.17
2023-11-29T19:39:46.732Z,20.63
2023-11-29T19:42:49.151Z,20.65
2023-11-29T19:45:53.808Z,20.15
2023-11-29T19:48:56.474Z,23.05
2023-11-29T19:51:58.924Z,20.15
2023-11-29T19:55:04.187Z,24.25
2023-11-29T19:58:13.723Z,25.35
2023-11-29T20:01:22.898Z,23.92
2023-11-29T20:04:25.396Z,22.80
2023-11-29T20:07:28.003Z,24.88
2023-11-29T20:10:33.306Z,24.08
2023-11-29T20:13:35.718Z,23.45
2023-11-29T20:16:40.713Z,20.02
2023-11-29T20:19:47.937Z,22.92
2023-11-29T20:22:52.720Z,21.58
2023-11-29T20:25:58.102Z,20.65
2023-11-29T20:29:03.131Z,21.20
2023-11-29T20:32:06.052Z,19.30
2023-11-29T20:35:25.357Z,21.40
2023-11-29T20:38:33.834Z,20.67
2023-11-29T20:41:36.291Z,21.13
2023-11-29T20:44:40.977Z,20.42
2023-11-29T20:47:45.926Z,22.98
2023-11-29T20:50:48.425Z,21.85
2023-11-29T20:53:53.590Z,20.63
2023-11-29T20:56:56.117Z,21.00
2023-11-29T20:59:58.599Z,18.25
2023-11-29T21:03:06.137Z,18.92
2023-11-29T21:06:08.941Z,17.42
2023-11-29T21:09:11.433Z,17.27
2023-11-29T21:12:18.640Z,17.27
2023-11-29T21:15:21.138Z,19.35
2023-11-29T21:18:23.732Z,16.50
2023-11-29T21:21:26.360Z,17.52
2023-11-29T21:24:28.803Z,15.38
2023-11-29T21:27:35.858Z,18.92
2023-11-29T21:30:38.285Z,15.43
2023-11-29T21:33:41.252Z,17.48
2023-11-29T21:36:45.944Z,17.48
2023-11-29T21:39:48.380Z,14.50
2023-11-29T21:42:51.001Z,16.02
2023-11-29T21:45:55.960Z,13.77
2023-11-29T21:49:01.236Z,19.02
2023-11-29T21:52:03.862Z,16.25
2023-11-29T21:55:09.627Z,16.40
2023-11-29T21:58:15.540Z,15.73
2023-11-29T22:01:22.914Z,15.88
2023-11-29T22:04:26.157Z,14.00
2023-11-29T22:07:31.082Z,16.13
2023-11-29T22:10:34.583Z,15.82
2023-11-29T22:13:37.352Z,15.15
2023-11-29T22:16:40.465Z,13.40
2023-11-29T22:19:45.898Z,14.52
2023-11-29T22:22:48.452Z,13.00
2023-11-29T22:25:50.971Z,12.82
2023-11-29T22:28:53.634Z,14.35
2023-11-29T22:31:56.286Z,11.80
2023-11-29T22:34:58.713Z,10.95
2023-11-29T22:38:01.303Z,12.57
2023-11-29T22:41:03.771Z,11.43
2023-11-29T22:44:06.210Z,9.35
2023-11-29T22:47:08.584Z,12.35
2023-11-29T22:50:11.154Z,11.60
2023-11-29T22:53:13.743Z,12.98
2023-11-29T22:56:16.530Z,12.48
2023-11-29T22:59:19.127Z,13.52
2023-11-29T23:02:24.757Z,12.70
2023-11-29T23:05:32.215Z,10.98
2023-11-29T23:08:34.673Z,11.65
2023-11-29T23:11:37.182Z,12.57
2023-11-29T23:14:41.780Z,10.40
2023-11-29T23:17:44.938Z,11.55
2023-11-29T23:20:50.166Z,10.38
2023-11-29T23:23:55.375Z,11.32
2023-11-29T23:26:58.390Z,7.93
2023-11-29T23:30:03.477Z,9.27
2023-11-29T23:33:05.840Z,8.25
2023-11-29T23:36:11.216Z,8.55
2023-11-29T23:39:16.454Z,6.47
2023-11-29T23:42:21.373Z,7.50
2023-11-29T23:45:23.835Z,8.77
2023-11-29T23:48:26.312Z,8.63
2023-11-29T23:51:31.132Z,8.05
2023-11-29T23:54:33.483Z,9.00
2023-11-29T23:57:38.201Z,7.72
